createdAt,value
2019-05-17T00:01:37.722Z,21.73
2019-05-17T00:04:09.109Z,20.32
2019-05-17T00:06:38.791Z,18.75
2019-05-17T00:09:09.807Z,16.62
2019-05-17T00:11:39.447Z,16.80
2019-05-17T00:14:09.054Z,17.62
2019-05-17T00:16:38.759Z,19.15
2019-05-17T00:19:08.118Z,16.95
2019-05-17T00:21:37.460Z,19.92
2019-05-17T00:24:06.920Z,18.70
2019-05-17T00:26:39.313Z,16.82
2019-05-17T00:29:07.861Z,17.57
2019-05-17T00:31:37.636Z,19.25
2019-05-17T00:34:07.476Z,15.65
2019-05-17T00:36:37.567Z,20.02
2019-05-17T00:39:07.687Z,14.45
2019-05-17T00:41:37.654Z,13.55
2019-05-17T00:44:07.102Z,9.98
2019-05-17T00:46:37.360Z,11.10
2019-05-17T00:49:07.161Z,11.10
2019-05-17T00:51:37.060Z,11.78
2019-05-17T00:54:11.240Z,12.93
2019-05-17T00:56:40.782Z,12.68
2019-05-17T00:59:10.264Z,12.45
2019-05-17T01:01:39.765Z,13.35
2019-05-17T01:04:09.451Z,11.35
2019-05-17T01:06:39.306Z,13.00
2019-05-17T01:09:09.249Z,9.25
2019-05-17T01:11:39.164Z,13.95
2019-05-17T01:14:08.645Z,11.70
2019-05-17T01:16:38.258Z,9.68
2019-05-17T01:19:08.043Z,11.57
2019-05-17T01:21:37.564Z,11.57
2019-05-17T01:24:07.253Z,8.30
2019-05-17T01:26:37.409Z,10.65
2019-05-17T01:29:07.054Z,10.95
2019-05-17T01:31:37.303Z,10.58
2019-05-17T01:34:07.649Z,5.97
2019-05-17T01:36:37.255Z,10.72
2019-05-17T01:39:17.036Z,9.75
2019-05-17T01:41:39.616Z,8.78
2019-05-17T01:44:09.109Z,8.80
2019-05-17T01:46:38.615Z,10.53
2019-05-17T01:49:08.196Z,10.55
2019-05-17T01:51:37.644Z,7.55
2019-05-17T01:54:07.091Z,12.93
2019-05-17T01:56:37.075Z,10.28
2019-05-17T01:59:06.988Z,11.73
2019-05-17T02:01:37.259Z,8.95
2019-05-17T02:04:06.733Z,7.90
2019-05-17T02:06:37.546Z,8.08
2019-05-17T02:09:07.413Z,7.60
2019-05-17T02:11:37.605Z,8.55
2019-05-17T02:14:07.487Z,8.35
2019-05-17T02:16:37.665Z,9.78
2019-05-17T02:19:07.630Z,10.32
2019-05-17T02:21:39.140Z,6.87
2019-05-17T02:24:08.798Z,9.95
2019-05-17T02:26:40.289Z,6.45
2019-05-17T02:29:14.824Z,7.65
2019-05-17T02:31:44.472Z,7.55
2019-05-17T02:34:15.470Z,10.30
2019-05-17T02:36:45.661Z,11.48
2019-05-17T02:44:15.356Z,12.60
2019-05-17T02:46:46.656Z,8.38
2019-05-17T02:49:16.818Z,8.40
2019-05-17T02:51:52.557Z,9.25
2019-05-17T02:54:23.545Z,10.23
2019-05-17T02:56:53.865Z,7.55
2019-05-17T02:59:24.959Z,10.50
2019-05-17T03:01:55.861Z,11.12
2019-05-17T03:04:25.605Z,8.10
2019-05-17T03:06:55.488Z,6.90
2019-05-17T03:09:25.490Z,8.43
2019-05-17T03:12:03.321Z,10.65
2019-05-17T03:14:32.917Z,44.85
2019-05-17T03:17:22.720Z,6.00
2019-05-17T03:19:57.855Z,7.85
2019-05-17T03:22:27.402Z,8.05
2019-05-17T03:24:56.819Z,7.58
2019-05-17T03:27:26.248Z,7.83
2019-05-17T03:29:55.695Z,7.30
2019-05-17T03:32:27.212Z,8.85
2019-05-17T03:34:57.232Z,11.18
2019-05-17T03:37:36.391Z,9.25
2019-05-17T03:40:02.709Z,10.88
2019-05-17T03:42:33.142Z,7.30
2019-05-17T03:45:03.213Z,8.53
2019-05-17T03:47:33.604Z,8.55
2019-05-17T03:50:03.541Z,12.07
2019-05-17T03:52:33.292Z,7.35
2019-05-17T03:55:04.223Z,9.70
2019-05-17T03:57:36.630Z,8.63
2019-05-17T04:00:07.036Z,9.08
2019-05-17T04:02:36.380Z,8.23
2019-05-17T04:05:06.272Z,7.70
2019-05-17T04:07:35.833Z,7.67
2019-05-17T04:10:05.818Z,8.53
2019-05-17T04:12:35.356Z,7.95
2019-05-17T04:15:05.141Z,8.95
2019-05-17T04:17:34.570Z,8.50
2019-05-17T04:20:07.659Z,10.58
2019-05-17T04:22:37.078Z,11.05
2019-05-17T04:25:06.682Z,16.47
2019-05-17T04:27:36.261Z,9.98
2019-05-17T04:30:08.665Z,9.05
2019-05-17T04:32:37.813Z,10.25
2019-05-17T04:35:07.439Z,14.23
2019-05-17T04:37:38.610Z,9.60
2019-05-17T04:40:13.630Z,9.88
2019-05-17T04:42:43.866Z,8.68
2019-05-17T04:45:12.673Z,33.35
2019-05-17T04:47:44.409Z,22.45
2019-05-17T04:50:14.278Z,32.10
2019-05-17T04:52:44.216Z,23.73
2019-05-17T04:55:14.148Z,10.00
2019-05-17T04:57:44.407Z,15.53
2019-05-17T05:00:14.805Z,13.40
2019-05-17T05:02:44.463Z,16.00
2019-05-17T05:05:14.566Z,17.52
2019-05-17T05:07:44.105Z,12.65
2019-05-17T05:10:14.382Z,14.70
2019-05-17T05:12:44.372Z,12.25
2019-05-17T05:15:14.189Z,12.88
2019-05-17T05:17:43.675Z,14.05
2019-05-17T05:20:13.687Z,14.35
2019-05-17T05:25:12.918Z,18.57
2019-05-17T05:27:42.988Z,14.85
2019-05-17T05:32:42.827Z,14.43
2019-05-17T05:35:12.773Z,16.15
2019-05-17T05:37:48.817Z,16.90
2019-05-17T05:40:18.240Z,17.23
2019-05-17T05:42:47.816Z,12.85
2019-05-17T05:45:17.460Z,15.53
2019-05-17T05:47:46.860Z,17.95
2019-05-17T05:50:17.710Z,21.50
2019-05-17T05:52:49.115Z,18.98
2019-05-17T05:55:18.472Z,21.65
2019-05-17T05:57:47.765Z,19.77
2019-05-17T06:00:18.835Z,19.93
2019-05-17T06:02:48.296Z,23.40
2019-05-17T06:05:18.114Z,22.37
2019-05-17T06:07:52.095Z,19.48
2019-05-17T06:10:21.857Z,20.70
2019-05-17T06:12:51.775Z,24.87
2019-05-17T06:15:21.933Z,23.50
2019-05-17T06:17:52.027Z,24.80
2019-05-17T06:20:22.410Z,24.52
2019-05-17T06:22:51.974Z,23.55
2019-05-17T06:25:23.364Z,22.65
2019-05-17T06:27:52.463Z,24.57
2019-05-17T06:30:22.126Z,26.00
2019-05-17T06:32:51.852Z,23.57
2019-05-17T06:35:21.784Z,25.52
2019-05-17T06:37:53.540Z,23.10
2019-05-17T06:40:23.133Z,27.77
2019-05-17T06:42:52.626Z,24.75
2019-05-17T06:45:22.348Z,26.30
2019-05-17T06:47:52.159Z,26.55
2019-05-17T06:50:23.455Z,24.15
2019-05-17T06:52:53.251Z,29.60
2019-05-17T06:57:52.882Z,27.65
2019-05-17T07:00:23.913Z,32.10
2019-05-17T07:02:53.225Z,28.73
2019-05-17T07:05:26.439Z,37.63
2019-05-17T07:07:55.764Z,30.52
2019-05-17T07:10:25.102Z,26.93
2019-05-17T07:12:58.756Z,35.60
2019-05-17T07:15:25.720Z,30.17
2019-05-17T07:17:54.991Z,29.35
2019-05-17T07:20:24.255Z,27.17
2019-05-17T07:22:53.614Z,25.50
2019-05-17T07:25:23.028Z,22.15
2019-05-17T07:27:52.395Z,26.73
2019-05-17T07:30:23.402Z,32.60
2019-05-17T07:32:53.005Z,26.65
2019-05-17T07:35:22.483Z,24.65
2019-05-17T07:37:52.657Z,25.55
2019-05-17T07:40:22.476Z,27.22
2019-05-17T07:42:51.925Z,37.90
2019-05-17T07:45:21.357Z,20.95
2019-05-17T07:47:50.675Z,24.63
2019-05-17T07:50:20.207Z,24.13
2019-05-17T07:52:50.012Z,24.18
2019-05-17T07:55:22.889Z,23.83
2019-05-17T07:57:50.314Z,26.57
2019-05-17T08:00:20.209Z,20.90
2019-05-17T08:02:50.490Z,24.35
2019-05-17T08:05:21.356Z,18.80
2019-05-17T08:07:51.047Z,18.87
2019-05-17T08:10:40.944Z,19.60
2019-05-17T08:13:25.212Z,18.57
2019-05-17T08:15:41.384Z,21.95
2019-05-17T08:18:11.240Z,19.80
2019-05-17T08:20:40.681Z,21.48
2019-05-17T08:23:10.841Z,22.30
2019-05-17T08:28:11.131Z,23.87
2019-05-17T08:30:41.295Z,24.47
2019-05-17T08:33:11.323Z,24.15
2019-05-17T08:35:41.024Z,28.77
2019-05-17T08:38:10.722Z,26.82
2019-05-17T08:40:41.604Z,21.35
2019-05-17T08:43:11.031Z,22.48
2019-05-17T08:45:40.962Z,21.45
2019-05-17T08:50:40.247Z,23.55
2019-05-17T08:53:12.431Z,25.32
2019-05-17T08:55:44.164Z,25.00
2019-05-17T11:15:11.522Z,13.65
2019-05-17T11:17:39.884Z,15.30
2019-05-17T11:20:10.008Z,15.28
2019-05-17T11:25:09.785Z,15.13
2019-05-17T11:41:51.511Z,13.65
2019-05-17T11:46:50.739Z,12.20
2019-05-17T11:49:20.413Z,15.68
2019-05-17T11:51:50.003Z,16.50
2019-05-17T11:54:19.761Z,16.82
2019-05-17T11:56:49.399Z,16.50
2019-05-17T11:59:18.948Z,17.70
2019-05-17T12:01:48.649Z,11.90
2019-05-17T12:04:18.397Z,13.25
2019-05-17T12:06:47.749Z,14.53
2019-05-17T12:09:20.168Z,14.05
2019-05-17T12:11:49.808Z,14.85
2019-05-17T12:14:19.330Z,12.88
2019-05-17T12:16:48.973Z,15.65
2019-05-17T12:19:18.494Z,10.40
2019-05-17T12:21:48.373Z,15.95
2019-05-17T12:24:18.129Z,15.85
2019-05-17T12:26:48.001Z,15.93
2019-05-17T12:29:17.577Z,13.05
2019-05-17T12:31:50.286Z,15.80
2019-05-17T12:34:20.012Z,13.70
2019-05-17T12:36:50.252Z,14.43
2019-05-17T12:39:22.591Z,14.53
2019-05-17T12:41:52.321Z,14.43
2019-05-17T12:44:24.102Z,16.73
2019-05-17T12:46:54.114Z,16.12
2019-05-17T12:51:52.297Z,15.03
2019-05-17T12:54:21.926Z,15.30
2019-05-17T12:56:51.698Z,17.65
2019-05-17T12:59:21.757Z,14.23
2019-05-17T13:04:20.314Z,16.17
2019-05-17T13:06:49.944Z,14.83
2019-05-17T13:09:19.634Z,17.30
2019-05-17T13:11:49.215Z,15.13
2019-05-17T13:14:18.892Z,14.58
2019-05-17T13:16:48.636Z,14.68
2019-05-17T13:19:18.563Z,14.93
2019-05-17T13:24:16.959Z,17.50
2019-05-17T13:26:46.535Z,15.28
2019-05-17T13:29:16.039Z,15.20
2019-05-17T13:31:45.704Z,16.93
2019-05-17T13:34:15.312Z,17.00
2019-05-17T13:36:46.945Z,15.70
2019-05-17T13:39:16.574Z,15.32
2019-05-17T13:41:46.132Z,17.42
2019-05-17T13:44:15.947Z,15.08
2019-05-17T13:46:48.160Z,14.95
2019-05-17T13:49:18.469Z,16.60
2019-05-17T13:51:48.244Z,16.77
2019-05-17T13:54:18.426Z,14.38
2019-05-17T13:56:49.842Z,14.50
2019-05-17T13:59:19.385Z,15.93
2019-05-17T14:01:49.291Z,15.88
2019-05-17T14:04:18.982Z,16.20
2019-05-17T14:06:48.483Z,14.13
2019-05-17T14:09:18.250Z,12.35
2019-05-17T14:11:48.128Z,18.48
2019-05-17T14:14:20.352Z,15.08
2019-05-17T14:16:50.050Z,13.48
2019-05-17T14:19:19.967Z,12.70
2019-05-17T14:21:49.569Z,14.83
2019-05-17T14:24:19.523Z,13.98
2019-05-17T14:29:17.696Z,13.60
2019-05-17T14:31:47.379Z,14.33
2019-05-17T14:34:17.087Z,13.95
2019-05-17T14:36:49.429Z,14.15
2019-05-17T14:39:19.171Z,11.50
2019-05-17T14:41:48.710Z,13.70
2019-05-17T14:44:18.264Z,14.53
2019-05-17T14:47:00.757Z,14.50
2019-05-17T14:49:33.947Z,13.10
2019-05-17T14:52:19.622Z,12.78
2019-05-17T14:54:50.784Z,13.20
2019-05-17T14:57:20.367Z,18.87
2019-05-17T14:59:50.503Z,16.73
2019-05-17T15:02:20.231Z,14.38
2019-05-17T15:04:52.786Z,12.45
2019-05-17T15:07:22.661Z,12.68
2019-05-17T15:09:53.196Z,12.73
2019-05-17T15:12:28.796Z,16.93
2019-05-17T15:14:59.208Z,16.12
2019-05-17T15:17:29.123Z,13.55
2019-05-17T15:19:59.076Z,11.85
2019-05-17T15:24:57.926Z,11.57
2019-05-17T15:27:28.044Z,15.50
2019-05-17T15:29:57.993Z,12.85
2019-05-17T15:34:56.683Z,14.45
2019-05-17T15:39:56.415Z,17.32
2019-05-17T15:42:26.093Z,16.25
2019-05-17T15:44:55.326Z,10.68
2019-05-17T15:47:24.924Z,11.53
2019-05-17T15:49:54.375Z,13.38
2019-05-17T15:52:23.904Z,11.43
2019-05-17T15:54:53.835Z,10.98
2019-05-17T15:57:23.403Z,9.10
2019-05-17T15:59:52.901Z,12.10
2019-05-17T16:02:22.683Z,13.75
2019-05-17T16:04:52.621Z,9.30
2019-05-17T16:09:51.062Z,10.72
2019-05-17T16:14:49.557Z,13.28
2019-05-17T16:17:19.399Z,11.12
2019-05-17T16:22:17.657Z,9.80
2019-05-17T16:24:47.277Z,10.70
2019-05-17T16:27:17.034Z,7.30
2019-05-17T16:29:46.572Z,6.70
2019-05-17T16:32:16.186Z,9.40
2019-05-17T16:34:45.877Z,9.60
2019-05-17T16:37:15.468Z,10.78
2019-05-17T16:39:45.163Z,10.53
2019-05-17T16:42:14.883Z,16.80
2019-05-17T16:44:46.591Z,13.43
2019-05-17T16:47:20.105Z,8.65
2019-05-17T16:49:49.944Z,10.65
2019-05-17T16:52:19.624Z,11.55
2019-05-17T16:54:49.375Z,10.93
2019-05-17T16:57:19.134Z,12.18
2019-05-17T16:59:49.225Z,11.55
2019-05-17T17:02:23.123Z,11.28
2019-05-17T17:05:01.933Z,11.70
2019-05-17T17:07:51.969Z,13.10
2019-05-17T17:10:29.833Z,10.55
2019-05-17T17:13:33.115Z,11.35
2019-05-17T17:16:15.517Z,12.00
2019-05-17T17:18:51.811Z,12.00
2019-05-17T17:21:53.636Z,14.73
2019-05-17T17:24:25.738Z,11.93
2019-05-17T17:27:08.605Z,11.63
2019-05-17T17:29:41.243Z,10.85
2019-05-17T17:32:21.465Z,11.30
2019-05-17T17:35:17.757Z,14.75
2019-05-17T17:38:14.905Z,12.73
2019-05-17T17:41:53.445Z,16.27
2019-05-17T17:44:25.502Z,10.78
2019-05-17T17:47:52.383Z,10.43
2019-05-17T17:50:30.007Z,13.60
2019-05-17T17:53:03.006Z,14.10
2019-05-17T17:55:36.938Z,14.98
2019-05-17T17:58:07.867Z,11.95
2019-05-17T18:00:40.526Z,39.90
2019-05-17T18:03:20.649Z,17.15
2019-05-17T18:06:21.896Z,11.93
2019-05-17T18:08:54.360Z,12.35
2019-05-17T18:11:47.566Z,15.00
2019-05-17T18:14:19.632Z,13.65
2019-05-17T18:16:49.389Z,15.53
2019-05-17T18:19:19.664Z,16.00
2019-05-17T18:21:49.324Z,20.70
2019-05-17T18:24:19.004Z,14.98
2019-05-17T18:26:57.905Z,14.55
2019-05-17T18:29:32.388Z,16.62
2019-05-17T18:32:01.978Z,14.87
2019-05-17T18:34:31.640Z,16.05
2019-05-17T18:37:02.751Z,15.55
2019-05-17T18:39:34.310Z,16.42
2019-05-17T18:42:05.424Z,16.12
2019-05-17T18:44:35.024Z,16.37
2019-05-17T18:47:04.498Z,18.27
2019-05-17T18:49:34.107Z,17.23
2019-05-17T18:52:03.958Z,18.30
2019-05-17T18:54:33.510Z,16.30
2019-05-17T18:57:03.085Z,13.48
2019-05-17T18:59:33.969Z,17.30
2019-05-17T19:02:20.007Z,17.27
2019-05-17T19:04:50.745Z,17.80
2019-05-17T19:07:24.586Z,19.25
2019-05-17T19:09:54.034Z,16.27
2019-05-17T19:12:26.623Z,23.52
2019-05-17T19:14:56.345Z,18.73
2019-05-17T19:17:26.924Z,18.85
2019-05-17T19:20:08.072Z,20.27
2019-05-17T19:23:04.591Z,22.48
2019-05-17T19:26:00.265Z,18.75
2019-05-17T19:28:35.657Z,18.02
2019-05-17T19:31:14.529Z,22.70
2019-05-17T19:33:50.225Z,20.90
2019-05-17T19:36:21.454Z,21.73
2019-05-17T19:39:11.980Z,19.65
2019-05-17T19:41:41.973Z,18.42
2019-05-17T19:46:41.418Z,22.22
2019-05-17T19:49:11.604Z,25.10
2019-05-17T19:51:41.560Z,20.95
2019-05-17T19:54:11.976Z,21.35
2019-05-17T19:56:44.068Z,19.90
2019-05-17T19:59:13.277Z,20.08
2019-05-17T20:01:42.715Z,22.30
2019-05-17T20:04:12.189Z,20.20
2019-05-17T20:06:41.583Z,20.10
2019-05-17T20:09:10.966Z,25.08
2019-05-17T20:11:40.401Z,21.02
2019-05-17T20:14:09.631Z,28.83
2019-05-17T20:16:38.941Z,22.87
2019-05-17T20:19:08.306Z,25.90
2019-05-17T20:21:37.712Z,22.27
2019-05-17T20:24:06.902Z,21.77
2019-05-17T20:26:36.254Z,22.90
2019-05-17T20:29:05.608Z,25.60
2019-05-17T20:31:34.995Z,21.37
2019-05-17T20:34:04.330Z,23.00
2019-05-17T20:36:36.467Z,25.32
2019-05-17T20:39:07.674Z,24.12
2019-05-17T20:41:37.005Z,22.73
2019-05-17T20:44:07.120Z,26.45
2019-05-17T20:49:07.797Z,26.07
2019-05-17T20:51:37.538Z,22.40
2019-05-17T20:54:07.251Z,23.40
2019-05-17T20:56:36.616Z,22.35
2019-05-17T20:59:06.329Z,23.57
2019-05-17T21:01:35.909Z,27.42
2019-05-17T21:04:05.282Z,26.60
2019-05-17T21:06:34.790Z,22.87
2019-05-17T21:09:05.153Z,25.50
2019-05-17T21:11:39.377Z,22.30
2019-05-17T21:14:08.818Z,22.35
2019-05-17T21:16:38.309Z,21.68
2019-05-17T21:19:07.649Z,22.40
2019-05-17T21:21:37.034Z,20.68
2019-05-17T21:24:06.475Z,22.07
2019-05-17T21:26:35.786Z,22.77
2019-05-17T21:29:05.218Z,27.13
2019-05-17T21:31:35.115Z,23.07
2019-05-17T21:34:04.448Z,31.73
2019-05-17T21:36:33.941Z,23.07
2019-05-17T21:39:04.143Z,23.67
2019-05-17T21:41:33.526Z,68.55
2019-05-17T21:44:02.906Z,28.67
2019-05-17T21:46:32.600Z,24.67
2019-05-17T21:49:02.522Z,22.82
2019-05-17T21:51:32.629Z,20.92
2019-05-17T21:56:30.627Z,23.57
2019-05-17T21:58:59.971Z,23.45
2019-05-17T22:01:32.122Z,19.48
2019-05-17T22:04:01.848Z,24.85
2019-05-17T22:06:31.794Z,21.65
2019-05-17T22:09:01.814Z,25.97
2019-05-17T22:11:33.681Z,24.95
2019-05-17T22:14:03.050Z,22.52
2019-05-17T22:16:32.545Z,21.70
2019-05-17T22:19:02.035Z,22.02
2019-05-17T22:21:31.869Z,26.00
2019-05-17T22:24:02.790Z,22.00
2019-05-17T22:26:32.545Z,24.10
2019-05-17T22:29:02.659Z,20.82
2019-05-17T22:34:01.230Z,24.65
2019-05-17T22:36:30.872Z,22.00
2019-05-17T22:39:26.339Z,23.07
2019-05-17T22:41:55.843Z,29.65
2019-05-17T22:44:25.229Z,26.48
2019-05-17T22:46:54.654Z,27.80
2019-05-17T22:49:23.783Z,28.75
2019-05-17T22:51:53.022Z,26.47
2019-05-17T22:54:22.222Z,25.37
2019-05-17T22:56:51.874Z,20.97
2019-05-17T22:59:21.486Z,23.10
2019-05-17T23:01:51.492Z,21.62
2019-05-17T23:04:21.291Z,26.20
2019-05-17T23:06:50.816Z,22.48
2019-05-17T23:09:21.007Z,26.20
2019-05-17T23:14:20.935Z,23.45
2019-05-17T23:16:52.231Z,27.37
2019-05-17T23:19:22.029Z,23.57
2019-05-17T23:21:51.977Z,23.57
2019-05-17T23:24:21.455Z,27.30
2019-05-17T23:26:50.850Z,29.07
2019-05-17T23:29:20.285Z,31.55
2019-05-17T23:31:49.672Z,27.30
2019-05-17T23:34:19.228Z,29.00
2019-05-17T23:36:49.311Z,24.63
2019-05-17T23:41:47.531Z,27.52
2019-05-17T23:44:17.033Z,26.48
2019-05-17T23:46:46.745Z,26.15
2019-05-17T23:49:16.414Z,24.70
2019-05-17T23:51:45.997Z,29.45
2019-05-17T23:54:15.424Z,29.02
2019-05-17T23:56:45.013Z,21.97
2019-05-17T23:59:16.869Z,28.77
